sensor_id;sensor_type;location;lat;lon;timestamp;P1;durP1;ratioP1;P2;durP2;ratioP2
80136;SDS011;69466;55.948;37.484;2023-11-19T00:01:23;68.32;;;28.55;;
80136;SDS011;69466;55.948;37.484;2023-11-19T00:03:49;66.57;;;30.20;;
80136;SDS011;69466;55.948;37.484;2023-11-19T00:06:16;59.05;;;26.70;;
80136;SDS011;69466;55.948;37.484;2023-11-19T00:08:42;52.88;;;26.92;;
80136;SDS011;69466;55.948;37.484;2023-11-19T00:11:09;62.63;;;28.10;;
80136;SDS011;69466;55.948;37.484;2023-11-19T00:13:35;68.00;;;28.67;;
80136;SDS011;69466;55.948;37.484;2023-11-19T00:16:01;50.22;;;25.80;;
80136;SDS011;69466;55.948;37.484;2023-11-19T00:18:29;57.25;;;26.23;;
80136;SDS011;69466;55.948;37.484;2023-11-19T00:20:55;51.85;;;25.60;;
80136;SDS011;69466;55.948;37.484;2023-11-19T00:23:21;54.78;;;27.10;;
80136;SDS011;69466;55.948;37.484;2023-11-19T00:25:47;52.72;;;26.65;;
80136;SDS011;69466;55.948;37.484;2023-11-19T00:28:13;57.25;;;26.98;;
80136;SDS011;69466;55.948;37.484;2023-11-19T00:30:39;59.75;;;26.88;;
80136;SDS011;69466;55.948;37.484;2023-11-19T00:33:06;59.92;;;28.77;;
80136;SDS011;69466;55.948;37.484;2023-11-19T00:35:32;55.20;;;27.20;;
80136;SDS011;69466;55.948;37.484;2023-11-19T00:37:58;57.13;;;27.02;;
80136;SDS011;69466;55.948;37.484;2023-11-19T00:40:24;55.88;;;24.60;;
80136;SDS011;69466;55.948;37.484;2023-11-19T00:42:50;57.67;;;25.77;;
80136;SDS011;69466;55.948;37.484;2023-11-19T00:45:16;64.15;;;27.77;;
80136;SDS011;69466;55.948;37.484;2023-11-19T00:47:42;54.22;;;24.42;;
80136;SDS011;69466;55.948;37.484;2023-11-19T00:50:08;54.03;;;26.20;;
80136;SDS011;69466;55.948;37.484;2023-11-19T00:52:35;59.53;;;27.33;;
80136;SDS011;69466;55.948;37.484;2023-11-19T00:55:02;50.55;;;25.25;;
80136;SDS011;69466;55.948;37.484;2023-11-19T00:57:30;56.42;;;26.30;;
80136;SDS011;69466;55.948;37.484;2023-11-19T00:59:58;59.25;;;26.88;;
80136;SDS011;69466;55.948;37.484;2023-11-19T01:02:25;61.15;;;25.55;;
80136;SDS011;69466;55.948;37.484;2023-11-19T01:04:50;59.60;;;26.98;;
80136;SDS011;69466;55.948;37.484;2023-11-19T01:07:17;57.72;;;26.55;;
80136;SDS011;69466;55.948;37.484;2023-11-19T01:09:43;56.58;;;26.17;;
80136;SDS011;69466;55.948;37.484;2023-11-19T01:12:09;53.42;;;24.45;;
80136;SDS011;69466;55.948;37.484;2023-11-19T01:14:38;55.42;;;25.67;;
80136;SDS011;69466;55.948;37.484;2023-11-19T01:17:05;49.72;;;26.00;;
80136;SDS011;69466;55.948;37.484;2023-11-19T01:19:31;54.45;;;25.40;;
80136;SDS011;69466;55.948;37.484;2023-11-19T01:21:57;53.65;;;25.25;;
80136;SDS011;69466;55.948;37.484;2023-11-19T01:24:23;53.25;;;27.00;;
80136;SDS011;69466;55.948;37.484;2023-11-19T01:26:49;54.40;;;25.73;;
80136;SDS011;69466;55.948;37.484;2023-11-19T01:29:15;57.45;;;26.48;;
80136;SDS011;69466;55.948;37.484;2023-11-19T01:31:45;51.60;;;26.65;;
80136;SDS011;69466;55.948;37.484;2023-11-19T01:34:16;52.83;;;26.63;;
80136;SDS011;69466;55.948;37.484;2023-11-19T01:36:42;66.05;;;28.17;;
80136;SDS011;69466;55.948;37.484;2023-11-19T01:39:08;60.45;;;24.85;;
80136;SDS011;69466;55.948;37.484;2023-11-19T01:41:35;54.20;;;23.60;;
80136;SDS011;69466;55.948;37.484;2023-11-19T01:44:02;55.22;;;25.85;;
80136;SDS011;69466;55.948;37.484;2023-11-19T01:46:29;51.47;;;24.45;;
80136;SDS011;69466;55.948;37.484;2023-11-19T01:48:58;44.58;;;24.27;;
80136;SDS011;69466;55.948;37.484;2023-11-19T01:51:25;48.83;;;24.15;;
80136;SDS011;69466;55.948;37.484;2023-11-19T01:53:53;50.80;;;24.45;;
80136;SDS011;69466;55.948;37.484;2023-11-19T01:56:21;48.28;;;23.80;;
80136;SDS011;69466;55.948;37.484;2023-11-19T01:58:47;54.70;;;24.75;;
80136;SDS011;69466;55.948;37.484;2023-11-19T02:01:15;53.90;;;24.55;;
80136;SDS011;69466;55.948;37.484;2023-11-19T02:03:43;54.47;;;26.95;;
80136;SDS011;69466;55.948;37.484;2023-11-19T02:06:08;45.03;;;22.88;;
80136;SDS011;69466;55.948;37.484;2023-11-19T02:08:38;51.75;;;24.65;;
80136;SDS011;69466;55.948;37.484;2023-11-19T02:11:05;48.42;;;25.50;;
80136;SDS011;69466;55.948;37.484;2023-11-19T02:13:33;53.00;;;24.20;;
80136;SDS011;69466;55.948;37.484;2023-11-19T02:16:02;56.63;;;23.20;;
80136;SDS011;69466;55.948;37.484;2023-11-19T02:18:29;46.85;;;22.92;;
80136;SDS011;69466;55.948;37.484;2023-11-19T02:20:57;57.90;;;24.23;;
80136;SDS011;69466;55.948;37.484;2023-11-19T02:23:28;46.38;;;22.77;;
80136;SDS011;69466;55.948;37.484;2023-11-19T02:28:31;52.28;;;23.00;;
80136;SDS011;69466;55.948;37.484;2023-11-19T02:30:59;54.65;;;22.52;;
80136;SDS011;69466;55.948;37.484;2023-11-19T02:33:25;47.13;;;21.73;;
80136;SDS011;69466;55.948;37.484;2023-11-19T02:35:51;46.13;;;22.52;;
80136;SDS011;69466;55.948;37.484;2023-11-19T02:38:17;45.47;;;23.20;;
80136;SDS011;69466;55.948;37.484;2023-11-19T02:40:43;40.08;;;21.10;;
80136;SDS011;69466;55.948;37.484;2023-11-19T02:43:09;42.90;;;22.02;;
80136;SDS011;69466;55.948;37.484;2023-11-19T02:45:35;34.92;;;19.95;;
80136;SDS011;69466;55.948;37.484;2023-11-19T02:48:02;43.17;;;21.15;;
80136;SDS011;69466;55.948;37.484;2023-11-19T02:50:28;42.30;;;19.83;;
80136;SDS011;69466;55.948;37.484;2023-11-19T02:52:55;40.40;;;21.52;;
80136;SDS011;69466;55.948;37.484;2023-11-19T02:55:22;42.80;;;21.15;;
80136;SDS011;69466;55.948;37.484;2023-11-19T02:57:49;42.38;;;19.67;;
80136;SDS011;69466;55.948;37.484;2023-11-19T03:00:19;39.28;;;19.40;;
80136;SDS011;69466;55.948;37.484;2023-11-19T03:02:50;42.47;;;22.08;;
80136;SDS011;69466;55.948;37.484;2023-11-19T03:05:25;44.08;;;21.63;;
80136;SDS011;69466;55.948;37.484;2023-11-19T03:07:55;45.15;;;20.23;;
80136;SDS011;69466;55.948;37.484;2023-11-19T03:10:20;37.38;;;19.15;;
80136;SDS011;69466;55.948;37.484;2023-11-19T03:12:46;45.35;;;22.52;;
80136;SDS011;69466;55.948;37.484;2023-11-19T03:15:12;35.92;;;18.80;;
80136;SDS011;69466;55.948;37.484;2023-11-19T03:17:38;41.75;;;19.35;;
80136;SDS011;69466;55.948;37.484;2023-11-19T03:20:06;40.38;;;18.70;;
80136;SDS011;69466;55.948;37.484;2023-11-19T03:22:37;38.35;;;21.25;;
80136;SDS011;69466;55.948;37.484;2023-11-19T03:25:04;44.53;;;20.50;;
80136;SDS011;69466;55.948;37.484;2023-11-19T03:27:35;40.40;;;18.90;;
80136;SDS011;69466;55.948;37.484;2023-11-19T03:30:05;32.67;;;19.58;;
80136;SDS011;69466;55.948;37.484;2023-11-19T03:32:32;39.20;;;19.95;;
80136;SDS011;69466;55.948;37.484;2023-11-19T03:35:01;40.83;;;18.88;;
80136;SDS011;69466;55.948;37.484;2023-11-19T03:37:30;35.72;;;19.42;;
80136;SDS011;69466;55.948;37.484;2023-11-19T03:39:58;40.65;;;19.67;;
80136;SDS011;69466;55.948;37.484;2023-11-19T03:42:26;40.65;;;19.25;;
80136;SDS011;69466;55.948;37.484;2023-11-19T03:44:53;46.50;;;19.77;;
80136;SDS011;69466;55.948;37.484;2023-11-19T03:47:19;37.53;;;18.20;;
80136;SDS011;69466;55.948;37.484;2023-11-19T03:49:49;39.35;;;19.33;;
80136;SDS011;69466;55.948;37.484;2023-11-19T03:52:16;37.42;;;18.05;;
80136;SDS011;69466;55.948;37.484;2023-11-19T03:54:43;49.83;;;18.83;;
80136;SDS011;69466;55.948;37.484;2023-11-19T03:57:09;38.65;;;18.95;;
80136;SDS011;69466;55.948;37.484;2023-11-19T03:59:38;41.17;;;18.88;;
80136;SDS011;69466;55.948;37.484;2023-11-19T04:02:04;34.50;;;17.98;;
80136;SDS011;69466;55.948;37.484;2023-11-19T04:04:30;40.85;;;18.42;;
80136;SDS011;69466;55.948;37.484;2023-11-19T04:06:56;67.82;;;21.45;;
80136;SDS011;69466;55.948;37.484;2023-11-19T04:09:23;39.20;;;17.17;;
80136;SDS011;69466;55.948;37.484;2023-11-19T04:11:49;39.92;;;17.92;;
80136;SDS011;69466;55.948;37.484;2023-11-19T04:14:15;30.58;;;16.75;;
80136;SDS011;69466;55.948;37.484;2023-11-19T04:16:44;36.78;;;18.42;;
80136;SDS011;69466;55.948;37.484;2023-11-19T04:19:11;33.30;;;17.35;;
80136;SDS011;69466;55.948;37.484;2023-11-19T04:21:37;34.35;;;18.00;;
80136;SDS011;69466;55.948;37.484;2023-11-19T04:24:06;41.85;;;19.50;;
80136;SDS011;69466;55.948;37.484;2023-11-19T04:26:33;35.22;;;17.77;;
80136;SDS011;69466;55.948;37.484;2023-11-19T04:28:59;33.70;;;18.02;;
80136;SDS011;69466;55.948;37.484;2023-11-19T04:31:29;34.65;;;19.33;;
80136;SDS011;69466;55.948;37.484;2023-11-19T04:33:58;37.78;;;18.30;;
80136;SDS011;69466;55.948;37.484;2023-11-19T04:36:26;43.13;;;20.88;;
80136;SDS011;69466;55.948;37.484;2023-11-19T04:38:52;35.13;;;19.48;;
80136;SDS011;69466;55.948;37.484;2023-11-19T04:41:18;39.17;;;20.30;;
80136;SDS011;69466;55.948;37.484;2023-11-19T04:43:44;57.90;;;28.70;;
80136;SDS011;69466;55.948;37.484;2023-11-19T04:46:10;32.67;;;19.73;;
80136;SDS011;69466;55.948;37.484;2023-11-19T04:48:36;39.60;;;19.95;;
80136;SDS011;69466;55.948;37.484;2023-11-19T04:51:04;41.78;;;20.08;;
80136;SDS011;69466;55.948;37.484;2023-11-19T04:53:31;39.30;;;20.42;;
80136;SDS011;69466;55.948;37.484;2023-11-19T04:55:56;46.72;;;20.42;;
80136;SDS011;69466;55.948;37.484;2023-11-19T04:58:22;42.15;;;20.80;;
80136;SDS011;69466;55.948;37.484;2023-11-19T05:00:48;50.42;;;21.65;;
80136;SDS011;69466;55.948;37.484;2023-11-19T05:03:14;44.72;;;20.80;;
80136;SDS011;69466;55.948;37.484;2023-11-19T05:05:40;43.58;;;20.65;;
80136;SDS011;69466;55.948;37.484;2023-11-19T05:08:06;43.90;;;23.98;;
80136;SDS011;69466;55.948;37.484;2023-11-19T05:10:32;48.03;;;22.10;;
80136;SDS011;69466;55.948;37.484;2023-11-19T05:12:57;45.50;;;21.75;;
80136;SDS011;69466;55.948;37.484;2023-11-19T05:15:23;53.40;;;25.23;;
80136;SDS011;69466;55.948;37.484;2023-11-19T05:17:49;47.42;;;22.73;;
80136;SDS011;69466;55.948;37.484;2023-11-19T05:20:15;46.78;;;22.60;;
80136;SDS011;69466;55.948;37.484;2023-11-19T05:22:42;53.15;;;24.25;;
80136;SDS011;69466;55.948;37.484;2023-11-19T05:25:09;50.30;;;23.13;;
80136;SDS011;69466;55.948;37.484;2023-11-19T05:27:36;50.50;;;25.08;;
80136;SDS011;69466;55.948;37.484;2023-11-19T05:30:06;48.22;;;23.35;;
80136;SDS011;69466;55.948;37.484;2023-11-19T05:32:36;52.47;;;23.50;;
80136;SDS011;69466;55.948;37.484;2023-11-19T05:35:02;43.70;;;23.40;;
80136;SDS011;69466;55.948;37.484;2023-11-19T05:37:30;43.38;;;23.88;;
80136;SDS011;69466;55.948;37.484;2023-11-19T05:39:56;52.58;;;25.58;;
80136;SDS011;69466;55.948;37.484;2023-11-19T05:42:22;47.65;;;23.17;;
80136;SDS011;69466;55.948;37.484;2023-11-19T05:44:49;50.58;;;24.92;;
80136;SDS011;69466;55.948;37.484;2023-11-19T05:47:15;46.47;;;23.95;;
80136;SDS011;69466;55.948;37.484;2023-11-19T05:49:42;46.90;;;24.45;;
80136;SDS011;69466;55.948;37.484;2023-11-19T05:52:08;47.20;;;23.23;;
80136;SDS011;69466;55.948;37.484;2023-11-19T05:54:37;42.00;;;21.92;;
80136;SDS011;69466;55.948;37.484;2023-11-19T05:57:07;42.72;;;22.52;;
80136;SDS011;69466;55.948;37.484;2023-11-19T05:59:36;47.40;;;23.77;;
80136;SDS011;69466;55.948;37.484;2023-11-19T06:02:02;50.45;;;24.25;;
80136;SDS011;69466;55.948;37.484;2023-11-19T06:04:28;47.47;;;22.50;;
80136;SDS011;69466;55.948;37.484;2023-11-19T06:06:54;43.45;;;22.58;;
80136;SDS011;69466;55.948;37.484;2023-11-19T06:09:21;41.15;;;21.77;;
80136;SDS011;69466;55.948;37.484;2023-11-19T06:11:49;53.03;;;23.67;;
80136;SDS011;69466;55.948;37.484;2023-11-19T06:14:16;47.67;;;20.75;;
80136;SDS011;69466;55.948;37.484;2023-11-19T06:16:42;42.63;;;20.80;;
80136;SDS011;69466;55.948;37.484;2023-11-19T06:19:09;33.67;;;18.20;;
80136;SDS011;69466;55.948;37.484;2023-11-19T06:21:36;40.80;;;17.52;;
80136;SDS011;69466;55.948;37.484;2023-11-19T06:24:02;41.72;;;18.15;;
80136;SDS011;69466;55.948;37.484;2023-11-19T06:26:28;31.58;;;16.10;;
80136;SDS011;69466;55.948;37.484;2023-11-19T06:28:54;58.90;;;29.33;;
80136;SDS011;69466;55.948;37.484;2023-11-19T06:31:20;42.70;;;20.92;;
80136;SDS011;69466;55.948;37.484;2023-11-19T06:33:47;38.63;;;18.67;;
80136;SDS011;69466;55.948;37.484;2023-11-19T06:36:16;36.05;;;18.98;;
80136;SDS011;69466;55.948;37.484;2023-11-19T06:38:42;50.88;;;18.17;;
80136;SDS011;69466;55.948;37.484;2023-11-19T06:41:08;35.10;;;16.55;;
80136;SDS011;69466;55.948;37.484;2023-11-19T06:43:35;31.75;;;16.55;;
80136;SDS011;69466;55.948;37.484;2023-11-19T06:46:02;36.97;;;17.55;;
80136;SDS011;69466;55.948;37.484;2023-11-19T06:48:32;36.55;;;18.00;;
80136;SDS011;69466;55.948;37.484;2023-11-19T06:50:59;31.13;;;15.82;;
80136;SDS011;69466;55.948;37.484;2023-11-19T06:53:25;30.98;;;15.45;;
80136;SDS011;69466;55.948;37.484;2023-11-19T06:55:54;30.65;;;16.30;;
80136;SDS011;69466;55.948;37.484;2023-11-19T06:58:20;37.10;;;16.75;;
80136;SDS011;69466;55.948;37.484;2023-11-19T07:00:51;35.40;;;17.48;;
80136;SDS011;69466;55.948;37.484;2023-11-19T07:03:17;29.23;;;14.68;;
80136;SDS011;69466;55.948;37.484;2023-11-19T07:05:43;31.92;;;15.60;;
80136;SDS011;69466;55.948;37.484;2023-11-19T07:08:09;33.70;;;16.55;;
80136;SDS011;69466;55.948;37.484;2023-11-19T07:10:35;30.08;;;13.95;;
80136;SDS011;69466;55.948;37.484;2023-11-19T07:13:01;23.92;;;12.20;;
80136;SDS011;69466;55.948;37.484;2023-11-19T07:15:31;21.90;;;13.20;;
80136;SDS011;69466;55.948;37.484;2023-11-19T07:17:58;29.75;;;13.88;;
80136;SDS011;69466;55.948;37.484;2023-11-19T07:20:25;22.05;;;13.45;;
80136;SDS011;69466;55.948;37.484;2023-11-19T07:22:53;20.33;;;11.18;;
80136;SDS011;69466;55.948;37.484;2023-11-19T07:25:20;25.52;;;14.00;;
80136;SDS011;69466;55.948;37.484;2023-11-19T07:27:46;26.17;;;12.68;;
80136;SDS011;69466;55.948;37.484;2023-11-19T07:30:13;22.52;;;12.73;;
80136;SDS011;69466;55.948;37.484;2023-11-19T07:32:43;26.63;;;13.13;;
80136;SDS011;69466;55.948;37.484;2023-11-19T07:35:09;23.52;;;12.40;;
80136;SDS011;69466;55.948;37.484;2023-11-19T07:37:35;24.70;;;12.68;;
80136;SDS011;69466;55.948;37.484;2023-11-19T07:40:01;24.67;;;12.25;;
80136;SDS011;69466;55.948;37.484;2023-11-19T07:42:29;24.00;;;12.45;;
80136;SDS011;69466;55.948;37.484;2023-11-19T07:44:56;22.08;;;12.82;;
80136;SDS011;69466;55.948;37.484;2023-11-19T07:47:22;18.65;;;10.95;;
80136;SDS011;69466;55.948;37.484;2023-11-19T07:49:50;19.42;;;10.77;;
80136;SDS011;69466;55.948;37.484;2023-11-19T07:52:16;21.92;;;10.38;;
80136;SDS011;69466;55.948;37.484;2023-11-19T07:54:42;21.17;;;11.40;;
80136;SDS011;69466;55.948;37.484;2023-11-19T07:57:08;22.42;;;10.15;;
80136;SDS011;69466;55.948;37.484;2023-11-19T07:59:34;13.25;;;8.55;;
80136;SDS011;69466;55.948;37.484;2023-11-19T08:02:03;17.58;;;8.38;;
80136;SDS011;69466;55.948;37.484;2023-11-19T08:04:31;18.20;;;10.02;;
80136;SDS011;69466;55.948;37.484;2023-11-19T08:07:00;20.88;;;8.05;;
80136;SDS011;69466;55.948;37.484;2023-11-19T08:09:27;18.65;;;8.77;;
80136;SDS011;69466;55.948;37.484;2023-11-19T08:11:53;15.45;;;7.82;;
80136;SDS011;69466;55.948;37.484;2023-11-19T08:14:21;18.02;;;8.88;;
80136;SDS011;69466;55.948;37.484;2023-11-19T08:16:47;14.90;;;7.10;;
80136;SDS011;69466;55.948;37.484;2023-11-19T08:19:13;16.05;;;7.80;;
80136;SDS011;69466;55.948;37.484;2023-11-19T08:21:42;16.88;;;7.57;;
80136;SDS011;69466;55.948;37.484;2023-11-19T08:24:08;13.50;;;7.50;;
80136;SDS011;69466;55.948;37.484;2023-11-19T08:26:34;15.35;;;7.03;;
80136;SDS011;69466;55.948;37.484;2023-11-19T08:29:00;16.95;;;7.20;;
80136;SDS011;69466;55.948;37.484;2023-11-19T08:31:26;17.17;;;7.68;;
80136;SDS011;69466;55.948;37.484;2023-11-19T08:33:53;14.82;;;7.47;;
80136;SDS011;69466;55.948;37.484;2023-11-19T08:36:19;15.18;;;6.90;;
80136;SDS011;69466;55.948;37.484;2023-11-19T08:38:45;13.77;;;7.40;;
80136;SDS011;69466;55.948;37.484;2023-11-19T08:41:12;15.45;;;7.60;;
80136;SDS011;69466;55.948;37.484;2023-11-19T08:43:38;14.82;;;7.65;;
80136;SDS011;69466;55.948;37.484;2023-11-19T08:46:09;12.77;;;6.15;;
80136;SDS011;69466;55.948;37.484;2023-11-19T08:48:35;15.32;;;6.70;;
80136;SDS011;69466;55.948;37.484;2023-11-19T08:51:02;13.40;;;6.68;;
80136;SDS011;69466;55.948;37.484;2023-11-19T08:53:30;16.48;;;7.13;;
80136;SDS011;69466;55.948;37.484;2023-11-19T08:55:55;18.02;;;7.70;;
80136;SDS011;69466;55.948;37.484;2023-11-19T08:58:21;12.82;;;6.78;;
80136;SDS011;69466;55.948;37.484;2023-11-19T09:00:47;12.15;;;6.30;;
80136;SDS011;69466;55.948;37.484;2023-11-19T09:03:13;12.85;;;6.60;;
80136;SDS011;69466;55.948;37.484;2023-11-19T09:05:39;15.77;;;6.85;;
80136;SDS011;69466;55.948;37.484;2023-11-19T09:08:06;13.80;;;6.28;;
80136;SDS011;69466;55.948;37.484;2023-11-19T09:10:36;12.60;;;6.57;;
80136;SDS011;69466;55.948;37.484;2023-11-19T09:13:02;14.15;;;6.60;;
80136;SDS011;69466;55.948;37.484;2023-11-19T09:15:29;11.75;;;6.57;;
80136;SDS011;69466;55.948;37.484;2023-11-19T09:17:55;12.00;;;5.95;;
80136;SDS011;69466;55.948;37.484;2023-11-19T09:20:21;14.98;;;6.43;;
80136;SDS011;69466;55.948;37.484;2023-11-19T09:22:47;13.85;;;6.15;;
80136;SDS011;69466;55.948;37.484;2023-11-19T09:25:14;12.18;;;6.35;;
80136;SDS011;69466;55.948;37.484;2023-11-19T09:27:43;13.73;;;6.20;;
80136;SDS011;69466;55.948;37.484;2023-11-19T09:30:10;15.90;;;7.25;;
80136;SDS011;69466;55.948;37.484;2023-11-19T09:32:36;16.35;;;6.93;;
80136;SDS011;69466;55.948;37.484;2023-11-19T09:35:03;13.32;;;6.78;;
80136;SDS011;69466;55.948;37.484;2023-11-19T09:37:29;13.27;;;6.20;;
80136;SDS011;69466;55.948;37.484;2023-11-19T09:39:55;13.10;;;7.32;;
80136;SDS011;69466;55.948;37.484;2023-11-19T09:42:23;14.00;;;6.80;;
80136;SDS011;69466;55.948;37.484;2023-11-19T09:44:49;17.65;;;6.97;;
80136;SDS011;69466;55.948;37.484;2023-11-19T09:47:16;10.65;;;6.47;;
80136;SDS011;69466;55.948;37.484;2023-11-19T09:49:42;17.38;;;8.43;;
80136;SDS011;69466;55.948;37.484;2023-11-19T09:52:42;13.23;;;6.95;;
80136;SDS011;69466;55.948;37.484;2023-11-19T09:55:08;17.95;;;6.80;;
80136;SDS011;69466;55.948;37.484;2023-11-19T09:57:34;17.65;;;7.75;;
80136;SDS011;69466;55.948;37.484;2023-11-19T10:00:06;12.20;;;7.55;;
80136;SDS011;69466;55.948;37.484;2023-11-19T10:02:37;16.35;;;7.80;;
80136;SDS011;69466;55.948;37.484;2023-11-19T10:05:06;13.77;;;6.95;;
80136;SDS011;69466;55.948;37.484;2023-11-19T10:07:33;16.27;;;7.78;;
80136;SDS011;69466;55.948;37.484;2023-11-19T10:10:02;15.50;;;7.68;;
80136;SDS011;69466;55.948;37.484;2023-11-19T10:12:31;15.93;;;7.72;;
80136;SDS011;69466;55.948;37.484;2023-11-19T10:14:57;13.35;;;7.25;;
80136;SDS011;69466;55.948;37.484;2023-11-19T10:17:28;13.57;;;6.63;;
80136;SDS011;69466;55.948;37.484;2023-11-19T10:19:57;13.55;;;6.25;;
80136;SDS011;69466;55.948;37.484;2023-11-19T10:22:23;14.63;;;6.93;;
80136;SDS011;69466;55.948;37.484;2023-11-19T10:24:52;11.60;;;7.07;;
80136;SDS011;69466;55.948;37.484;2023-11-19T10:27:18;10.68;;;5.75;;
80136;SDS011;69466;55.948;37.484;2023-11-19T10:29:45;13.20;;;6.60;;
80136;SDS011;69466;55.948;37.484;2023-11-19T10:32:12;15.57;;;7.93;;
80136;SDS011;69466;55.948;37.484;2023-11-19T10:34:40;12.90;;;6.97;;
80136;SDS011;69466;55.948;37.484;2023-11-19T10:37:07;14.25;;;6.93;;
80136;SDS011;69466;55.948;37.484;2023-11-19T10:39:51;15.73;;;7.25;;
80136;SDS011;69466;55.948;37.484;2023-11-19T10:42:21;19.35;;;8.23;;
80136;SDS011;69466;55.948;37.484;2023-11-19T10:44:48;15.80;;;7.82;;
80136;SDS011;69466;55.948;37.484;2023-11-19T10:47:14;15.57;;;8.02;;
80136;SDS011;69466;55.948;37.484;2023-11-19T10:49:44;15.30;;;7.55;;
80136;SDS011;69466;55.948;37.484;2023-11-19T10:52:11;19.02;;;8.65;;
80136;SDS011;69466;55.948;37.484;2023-11-19T10:54:41;15.77;;;8.00;;
80136;SDS011;69466;55.948;37.484;2023-11-19T10:57:10;16.48;;;7.28;;
80136;SDS011;69466;55.948;37.484;2023-11-19T10:59:41;16.70;;;8.70;;
80136;SDS011;69466;55.948;37.484;2023-11-19T11:02:09;13.07;;;6.80;;
80136;SDS011;69466;55.948;37.484;2023-11-19T11:04:39;20.25;;;8.63;;
80136;SDS011;69466;55.948;37.484;2023-11-19T11:07:07;27.05;;;12.68;;
80136;SDS011;69466;55.948;37.484;2023-11-19T11:09:34;26.80;;;15.30;;
80136;SDS011;69466;55.948;37.484;2023-11-19T11:12:01;26.80;;;15.20;;
80136;SDS011;69466;55.948;37.484;2023-11-19T11:14:28;27.38;;;14.90;;
80136;SDS011;69466;55.948;37.484;2023-11-19T11:16:56;29.08;;;16.55;;
80136;SDS011;69466;55.948;37.484;2023-11-19T11:19:23;34.75;;;17.15;;
80136;SDS011;69466;55.948;37.484;2023-11-19T11:21:53;28.55;;;18.10;;
80136;SDS011;69466;55.948;37.484;2023-11-19T11:35:53;41.55;;;18.30;;
80136;SDS011;69466;55.948;37.484;2023-11-19T11:38:28;37.22;;;19.15;;
80136;SDS011;69466;55.948;37.484;2023-11-19T11:43:49;28.20;;;15.68;;
80136;SDS011;69466;55.948;37.484;2023-11-19T11:49:04;27.63;;;15.68;;
80136;SDS011;69466;55.948;37.484;2023-11-19T11:57:30;32.00;;;16.58;;
80136;SDS011;69466;55.948;37.484;2023-11-19T12:02:07;28.77;;;16.92;;
80136;SDS011;69466;55.948;37.484;2023-11-19T12:04:35;28.65;;;15.85;;
80136;SDS011;69466;55.948;37.484;2023-11-19T12:07:18;30.13;;;15.77;;
80136;SDS011;69466;55.948;37.484;2023-11-19T12:09:52;35.03;;;16.60;;
80136;SDS011;69466;55.948;37.484;2023-11-19T12:12:32;33.80;;;16.05;;
80136;SDS011;69466;55.948;37.484;2023-11-19T12:20:02;35.78;;;18.08;;
80136;SDS011;69466;55.948;37.484;2023-11-19T12:22:31;28.98;;;15.60;;
80136;SDS011;69466;55.948;37.484;2023-11-19T12:24:57;31.70;;;15.43;;
80136;SDS011;69466;55.948;37.484;2023-11-19T12:27:24;31.92;;;16.63;;
80136;SDS011;69466;55.948;37.484;2023-11-19T12:29:51;36.00;;;16.85;;
80136;SDS011;69466;55.948;37.484;2023-11-19T12:32:18;34.72;;;15.68;;
80136;SDS011;69466;55.948;37.484;2023-11-19T12:34:45;35.13;;;18.98;;
80136;SDS011;69466;55.948;37.484;2023-11-19T12:37:11;32.95;;;18.65;;
80136;SDS011;69466;55.948;37.484;2023-11-19T12:39:37;33.95;;;16.15;;
80136;SDS011;69466;55.948;37.484;2023-11-19T12:42:03;29.48;;;16.83;;
80136;SDS011;69466;55.948;37.484;2023-11-19T12:44:31;32.50;;;17.65;;
80136;SDS011;69466;55.948;37.484;2023-11-19T12:47:01;31.10;;;16.27;;
80136;SDS011;69466;55.948;37.484;2023-11-19T12:49:32;30.02;;;16.42;;
80136;SDS011;69466;55.948;37.484;2023-11-19T12:51:59;31.83;;;16.58;;
80136;SDS011;69466;55.948;37.484;2023-11-19T12:54:35;24.13;;;15.43;;
80136;SDS011;69466;55.948;37.484;2023-11-19T12:57:01;29.42;;;14.35;;
80136;SDS011;69466;55.948;37.484;2023-11-19T12:59:30;33.20;;;14.43;;
80136;SDS011;69466;55.948;37.484;2023-11-19T13:01:57;33.60;;;16.90;;
80136;SDS011;69466;55.948;37.484;2023-11-19T13:04:27;29.45;;;14.20;;
80136;SDS011;69466;55.948;37.484;2023-11-19T13:06:56;26.42;;;13.95;;
80136;SDS011;69466;55.948;37.484;2023-11-19T13:09:26;39.42;;;15.68;;
80136;SDS011;69466;55.948;37.484;2023-11-19T13:11:53;26.00;;;13.95;;
80136;SDS011;69466;55.948;37.484;2023-11-19T13:14:19;28.10;;;13.40;;
80136;SDS011;69466;55.948;37.484;2023-11-19T13:16:46;27.65;;;13.43;;
80136;SDS011;69466;55.948;37.484;2023-11-19T13:19:13;29.17;;;13.35;;
80136;SDS011;69466;55.948;37.484;2023-11-19T13:21:39;28.20;;;13.02;;
80136;SDS011;69466;55.948;37.484;2023-11-19T13:24:06;31.92;;;14.63;;
80136;SDS011;69466;55.948;37.484;2023-11-19T13:26:32;23.40;;;13.88;;
80136;SDS011;69466;55.948;37.484;2023-11-19T13:28:58;27.58;;;14.02;;
80136;SDS011;69466;55.948;37.484;2023-11-19T13:31:24;24.90;;;14.35;;
80136;SDS011;69466;55.948;37.484;2023-11-19T13:33:51;26.80;;;14.13;;
80136;SDS011;69466;55.948;37.484;2023-11-19T13:36:16;32.33;;;15.35;;
80136;SDS011;69466;55.948;37.484;2023-11-19T13:38:43;26.50;;;13.43;;
80136;SDS011;69466;55.948;37.484;2023-11-19T13:41:12;22.85;;;13.70;;
80136;SDS011;69466;55.948;37.484;2023-11-19T13:43:39;23.15;;;13.52;;
80136;SDS011;69466;55.948;37.484;2023-11-19T13:46:05;24.85;;;13.32;;
80136;SDS011;69466;55.948;37.484;2023-11-19T13:48:31;20.92;;;13.63;;
80136;SDS011;69466;55.948;37.484;2023-11-19T13:50:57;23.05;;;13.57;;
80136;SDS011;69466;55.948;37.484;2023-11-19T13:53:23;24.98;;;12.77;;
80136;SDS011;69466;55.948;37.484;2023-11-19T13:55:49;24.83;;;13.10;;
80136;SDS011;69466;55.948;37.484;2023-11-19T13:58:15;23.33;;;12.60;;
80136;SDS011;69466;55.948;37.484;2023-11-19T14:00:41;24.67;;;13.35;;
80136;SDS011;69466;55.948;37.484;2023-11-19T14:03:09;25.15;;;14.27;;
80136;SDS011;69466;55.948;37.484;2023-11-19T14:05:38;26.88;;;13.95;;
80136;SDS011;69466;55.948;37.484;2023-11-19T14:08:04;28.50;;;13.68;;
80136;SDS011;69466;55.948;37.484;2023-11-19T14:10:40;24.08;;;14.80;;
80136;SDS011;69466;55.948;37.484;2023-11-19T14:13:06;38.00;;;14.32;;
80136;SDS011;69466;55.948;37.484;2023-11-19T14:15:33;23.92;;;13.52;;
80136;SDS011;69466;55.948;37.484;2023-11-19T14:17:59;23.40;;;14.35;;
80136;SDS011;69466;55.948;37.484;2023-11-19T14:20:25;27.42;;;13.18;;
80136;SDS011;69466;55.948;37.484;2023-11-19T14:22:54;26.88;;;13.32;;
80136;SDS011;69466;55.948;37.484;2023-11-19T14:25:19;25.10;;;15.15;;
80136;SDS011;69466;55.948;37.484;2023-11-19T14:27:47;35.05;;;15.45;;
80136;SDS011;69466;55.948;37.484;2023-11-19T14:30:13;28.65;;;13.77;;
80136;SDS011;69466;55.948;37.484;2023-11-19T14:32:40;24.27;;;13.10;;
80136;SDS011;69466;55.948;37.484;2023-11-19T14:35:09;22.27;;;11.93;;
80136;SDS011;69466;55.948;37.484;2023-11-19T14:37:35;22.10;;;11.98;;
80136;SDS011;69466;55.948;37.484;2023-11-19T14:40:02;29.25;;;12.93;;
80136;SDS011;69466;55.948;37.484;2023-11-19T14:42:32;27.27;;;14.05;;
80136;SDS011;69466;55.948;37.484;2023-11-19T14:44:58;22.55;;;12.60;;